Owensburg, Indiana
Current Conditions -  °F | °C
As of 3:53 PM on Monday 24 Nov 2014 (Local Time) from KBMG Reporting Station
Broken Clouds Broken Clouds  
Wind Chill: -1°   Ceiling: 3800
Heat Index:   Visibility: 10mi
Dew Point: -2°   Wind: 16mph
Humidity: 67%   Direction: 250°WSW
Pressure: 29.74"   Gusts: 26mph
Location:  38.92°N, 86.73°W
Report Text: KBMG 242053Z 25014G23KT 10SM BKN038 04/M02 A2974 RMK AO2 PK WND 23037/2020 SLP071 60000 T00391017 53042
Loading
Personal Weather Stations






























Interactive Weather Map New forecast layout! Learn more

10-Day Weather Forecast

Advertisements
Track Severe Weather on mobile